sensor_id;sensor_type;location;lat;lon;timestamp;temperature;humidity
63931;DHT22;50111;48.114;-2.066;2022-10-16T00:00:43;14.70;99.90
63931;DHT22;50111;48.114;-2.066;2022-10-16T00:03:09;14.80;99.90
63931;DHT22;50111;48.114;-2.066;2022-10-16T00:05:39;14.80;99.90
63931;DHT22;50111;48.114;-2.066;2022-10-16T00:08:05;14.80;99.90
63931;DHT22;50111;48.114;-2.066;2022-10-16T00:10:30;14.70;99.90
63931;DHT22;50111;48.114;-2.066;2022-10-16T00:12:56;14.80;99.90
63931;DHT22;50111;48.114;-2.066;2022-10-16T00:15:21;14.80;99.90
63931;DHT22;50111;48.114;-2.066;2022-10-16T00:17:47;14.70;99.90
63931;DHT22;50111;48.114;-2.066;2022-10-16T00:20:12;14.70;99.90
63931;DHT22;50111;48.114;-2.066;2022-10-16T00:22:38;14.70;99.90
63931;DHT22;50111;48.114;-2.066;2022-10-16T00:25:03;14.70;99.90
63931;DHT22;50111;48.114;-2.066;2022-10-16T00:27:29;14.80;99.90
63931;DHT22;50111;48.114;-2.066;2022-10-16T00:29:55;14.80;99.90
63931;DHT22;50111;48.114;-2.066;2022-10-16T00:32:20;14.80;99.90
63931;DHT22;50111;48.114;-2.066;2022-10-16T00:34:46;14.80;99.90
63931;DHT22;50111;48.114;-2.066;2022-10-16T00:37:12;14.90;99.90
63931;DHT22;50111;48.114;-2.066;2022-10-16T00:39:37;14.90;99.90
63931;DHT22;50111;48.114;-2.066;2022-10-16T00:42:03;14.90;99.90
63931;DHT22;50111;48.114;-2.066;2022-10-16T00:44:49;14.80;99.90
63931;DHT22;50111;48.114;-2.066;2022-10-16T00:47:36;14.90;99.90
63931;DHT22;50111;48.114;-2.066;2022-10-16T00:52:27;14.70;99.90
63931;DHT22;50111;48.114;-2.066;2022-10-16T00:54:53;14.70;99.90
63931;DHT22;50111;48.114;-2.066;2022-10-16T00:57:19;14.70;99.90
63931;DHT22;50111;48.114;-2.066;2022-10-16T00:59:45;14.70;99.90
63931;DHT22;50111;48.114;-2.066;2022-10-16T01:02:11;14.70;99.90
63931;DHT22;50111;48.114;-2.066;2022-10-16T01:04:58;14.70;99.90
63931;DHT22;50111;48.114;-2.066;2022-10-16T01:07:30;14.70;99.90
63931;DHT22;50111;48.114;-2.066;2022-10-16T01:12:41;14.70;99.90
63931;DHT22;50111;48.114;-2.066;2022-10-16T01:15:24;14.70;99.90
63931;DHT22;50111;48.114;-2.066;2022-10-16T01:18:14;14.70;99.90
63931;DHT22;50111;48.114;-2.066;2022-10-16T01:20:48;14.80;99.90
63931;DHT22;50111;48.114;-2.066;2022-10-16T01:28:09;14.70;99.90
63931;DHT22;50111;48.114;-2.066;2022-10-16T01:30:37;14.70;99.90
63931;DHT22;50111;48.114;-2.066;2022-10-16T01:33:05;14.70;99.90
63931;DHT22;50111;48.114;-2.066;2022-10-16T01:35:37;14.70;99.90
63931;DHT22;50111;48.114;-2.066;2022-10-16T01:40:29;14.60;99.90
63931;DHT22;50111;48.114;-2.066;2022-10-16T01:42:58;14.60;99.90
63931;DHT22;50111;48.114;-2.066;2022-10-16T01:45:25;14.60;99.90
63931;DHT22;50111;48.114;-2.066;2022-10-16T01:47:51;14.60;99.90
63931;DHT22;50111;48.114;-2.066;2022-10-16T01:50:18;14.60;99.90
63931;DHT22;50111;48.114;-2.066;2022-10-16T01:52:45;14.50;99.90
63931;DHT22;50111;48.114;-2.066;2022-10-16T01:55:12;14.50;99.90
63931;DHT22;50111;48.114;-2.066;2022-10-16T01:57:39;14.60;99.90
63931;DHT22;50111;48.114;-2.066;2022-10-16T02:00:10;14.50;99.90
63931;DHT22;50111;48.114;-2.066;2022-10-16T02:02:36;14.60;99.90
63931;DHT22;50111;48.114;-2.066;2022-10-16T02:05:05;14.50;99.90
63931;DHT22;50111;48.114;-2.066;2022-10-16T02:07:32;14.60;99.90
63931;DHT22;50111;48.114;-2.066;2022-10-16T02:09:57;14.50;99.90
63931;DHT22;50111;48.114;-2.066;2022-10-16T02:12:27;14.50;99.90
63931;DHT22;50111;48.114;-2.066;2022-10-16T02:14:53;14.50;99.90
63931;DHT22;50111;48.114;-2.066;2022-10-16T02:17:20;14.50;99.90
63931;DHT22;50111;48.114;-2.066;2022-10-16T02:19:46;14.50;99.90
63931;DHT22;50111;48.114;-2.066;2022-10-16T02:22:23;14.40;99.90
63931;DHT22;50111;48.114;-2.066;2022-10-16T02:30:07;14.30;99.90
63931;DHT22;50111;48.114;-2.066;2022-10-16T02:32:35;14.30;99.90
63931;DHT22;50111;48.114;-2.066;2022-10-16T02:35:02;14.10;99.90
63931;DHT22;50111;48.114;-2.066;2022-10-16T02:37:29;14.20;99.90
63931;DHT22;50111;48.114;-2.066;2022-10-16T02:39:56;14.20;99.90
63931;DHT22;50111;48.114;-2.066;2022-10-16T02:42:27;14.20;99.90
63931;DHT22;50111;48.114;-2.066;2022-10-16T02:44:52;14.20;99.90
63931;DHT22;50111;48.114;-2.066;2022-10-16T02:47:18;14.20;99.90
63931;DHT22;50111;48.114;-2.066;2022-10-16T02:49:43;14.20;99.90
63931;DHT22;50111;48.114;-2.066;2022-10-16T02:52:09;14.10;99.90
63931;DHT22;50111;48.114;-2.066;2022-10-16T02:54:34;14.10;99.90
63931;DHT22;50111;48.114;-2.066;2022-10-16T02:57:00;14.10;99.90
63931;DHT22;50111;48.114;-2.066;2022-10-16T02:59:25;14.00;99.90
63931;DHT22;50111;48.114;-2.066;2022-10-16T03:01:51;14.10;99.90
63931;DHT22;50111;48.114;-2.066;2022-10-16T03:04:16;14.10;99.90
63931;DHT22;50111;48.114;-2.066;2022-10-16T03:06:42;14.10;99.90
63931;DHT22;50111;48.114;-2.066;2022-10-16T03:09:07;14.00;99.90
63931;DHT22;50111;48.114;-2.066;2022-10-16T03:11:33;14.00;99.90
63931;DHT22;50111;48.114;-2.066;2022-10-16T03:13:58;13.90;99.90
63931;DHT22;50111;48.114;-2.066;2022-10-16T03:16:24;14.00;99.90
63931;DHT22;50111;48.114;-2.066;2022-10-16T03:18:49;13.90;99.90
63931;DHT22;50111;48.114;-2.066;2022-10-16T03:21:15;13.90;99.90
63931;DHT22;50111;48.114;-2.066;2022-10-16T03:23:41;13.90;99.90
63931;DHT22;50111;48.114;-2.066;2022-10-16T03:26:06;13.90;99.90
63931;DHT22;50111;48.114;-2.066;2022-10-16T03:28:50;13.90;99.90
63931;DHT22;50111;48.114;-2.066;2022-10-16T03:31:16;14.00;99.90
63931;DHT22;50111;48.114;-2.066;2022-10-16T03:33:42;14.00;99.90
63931;DHT22;50111;48.114;-2.066;2022-10-16T03:36:08;14.10;99.90
63931;DHT22;50111;48.114;-2.066;2022-10-16T03:38:33;14.10;99.90
63931;DHT22;50111;48.114;-2.066;2022-10-16T03:40:59;14.00;99.90
63931;DHT22;50111;48.114;-2.066;2022-10-16T03:43:24;14.10;99.90
63931;DHT22;50111;48.114;-2.066;2022-10-16T03:45:50;14.00;99.90
63931;DHT22;50111;48.114;-2.066;2022-10-16T03:48:17;14.00;99.90
63931;DHT22;50111;48.114;-2.066;2022-10-16T03:50:42;14.10;99.90
63931;DHT22;50111;48.114;-2.066;2022-10-16T03:53:08;14.10;99.90
63931;DHT22;50111;48.114;-2.066;2022-10-16T03:55:34;14.10;99.90
63931;DHT22;50111;48.114;-2.066;2022-10-16T03:57:59;14.10;99.90
63931;DHT22;50111;48.114;-2.066;2022-10-16T04:00:25;14.10;99.90
63931;DHT22;50111;48.114;-2.066;2022-10-16T04:02:50;14.10;99.90
63931;DHT22;50111;48.114;-2.066;2022-10-16T04:05:16;14.20;99.90
63931;DHT22;50111;48.114;-2.066;2022-10-16T04:07:41;14.10;99.90
63931;DHT22;50111;48.114;-2.066;2022-10-16T04:10:07;14.20;99.90
63931;DHT22;50111;48.114;-2.066;2022-10-16T04:12:32;14.20;99.90
63931;DHT22;50111;48.114;-2.066;2022-10-16T04:14:58;14.20;99.90
63931;DHT22;50111;48.114;-2.066;2022-10-16T04:17:24;14.20;99.90
63931;DHT22;50111;48.114;-2.066;2022-10-16T04:19:49;14.20;99.90
63931;DHT22;50111;48.114;-2.066;2022-10-16T04:22:15;14.30;99.90
63931;DHT22;50111;48.114;-2.066;2022-10-16T04:24:40;14.30;99.90
63931;DHT22;50111;48.114;-2.066;2022-10-16T04:27:06;14.30;99.90
63931;DHT22;50111;48.114;-2.066;2022-10-16T04:29:31;14.30;99.90
63931;DHT22;50111;48.114;-2.066;2022-10-16T04:31:57;14.30;99.90
63931;DHT22;50111;48.114;-2.066;2022-10-16T04:34:22;14.40;99.90
63931;DHT22;50111;48.114;-2.066;2022-10-16T04:36:48;14.40;99.90
63931;DHT22;50111;48.114;-2.066;2022-10-16T04:39:17;14.40;99.90
63931;DHT22;50111;48.114;-2.066;2022-10-16T04:41:42;14.50;99.90
63931;DHT22;50111;48.114;-2.066;2022-10-16T04:44:08;14.50;99.90
63931;DHT22;50111;48.114;-2.066;2022-10-16T04:46:33;14.50;99.90
63931;DHT22;50111;48.114;-2.066;2022-10-16T04:48:59;14.50;99.90
63931;DHT22;50111;48.114;-2.066;2022-10-16T04:51:24;14.50;99.90
63931;DHT22;50111;48.114;-2.066;2022-10-16T04:53:51;14.50;99.90
63931;DHT22;50111;48.114;-2.066;2022-10-16T04:56:16;14.40;99.90
63931;DHT22;50111;48.114;-2.066;2022-10-16T04:58:42;14.50;99.90
63931;DHT22;50111;48.114;-2.066;2022-10-16T05:01:07;14.50;99.90
63931;DHT22;50111;48.114;-2.066;2022-10-16T05:03:33;14.50;99.90
63931;DHT22;50111;48.114;-2.066;2022-10-16T05:05:58;14.50;99.90
63931;DHT22;50111;48.114;-2.066;2022-10-16T05:08:24;14.50;99.90
63931;DHT22;50111;48.114;-2.066;2022-10-16T05:10:50;14.50;99.90
63931;DHT22;50111;48.114;-2.066;2022-10-16T05:13:15;14.50;99.90
63931;DHT22;50111;48.114;-2.066;2022-10-16T05:15:41;14.50;99.90
63931;DHT22;50111;48.114;-2.066;2022-10-16T05:18:06;14.50;99.90
63931;DHT22;50111;48.114;-2.066;2022-10-16T05:20:32;14.50;99.90
63931;DHT22;50111;48.114;-2.066;2022-10-16T05:22:57;14.50;99.90
63931;DHT22;50111;48.114;-2.066;2022-10-16T05:25:23;14.50;99.90
63931;DHT22;50111;48.114;-2.066;2022-10-16T05:27:49;14.50;99.90
63931;DHT22;50111;48.114;-2.066;2022-10-16T05:30:15;14.50;99.90
63931;DHT22;50111;48.114;-2.066;2022-10-16T05:32:40;14.50;99.90
63931;DHT22;50111;48.114;-2.066;2022-10-16T05:35:06;14.50;99.90
63931;DHT22;50111;48.114;-2.066;2022-10-16T05:37:32;14.40;99.90
63931;DHT22;50111;48.114;-2.066;2022-10-16T05:39:57;14.50;99.90
63931;DHT22;50111;48.114;-2.066;2022-10-16T05:42:23;14.50;99.90
63931;DHT22;50111;48.114;-2.066;2022-10-16T05:44:48;14.50;99.90
63931;DHT22;50111;48.114;-2.066;2022-10-16T05:47:14;14.50;99.90
63931;DHT22;50111;48.114;-2.066;2022-10-16T05:49:40;14.60;99.90
63931;DHT22;50111;48.114;-2.066;2022-10-16T05:52:05;14.50;99.90
63931;DHT22;50111;48.114;-2.066;2022-10-16T05:54:31;14.60;99.90
63931;DHT22;50111;48.114;-2.066;2022-10-16T05:56:56;14.60;99.90
63931;DHT22;50111;48.114;-2.066;2022-10-16T05:59:22;14.60;99.90
63931;DHT22;50111;48.114;-2.066;2022-10-16T06:01:47;14.60;99.90
63931;DHT22;50111;48.114;-2.066;2022-10-16T06:04:13;14.60;99.90
63931;DHT22;50111;48.114;-2.066;2022-10-16T06:06:38;14.60;99.90
63931;DHT22;50111;48.114;-2.066;2022-10-16T06:09:04;14.70;99.90
63931;DHT22;50111;48.114;-2.066;2022-10-16T06:11:31;14.60;99.90
63931;DHT22;50111;48.114;-2.066;2022-10-16T06:13:58;14.60;99.90
63931;DHT22;50111;48.114;-2.066;2022-10-16T06:16:24;14.60;99.90
63931;DHT22;50111;48.114;-2.066;2022-10-16T06:18:50;14.60;99.90
63931;DHT22;50111;48.114;-2.066;2022-10-16T06:21:17;14.60;99.90
63931;DHT22;50111;48.114;-2.066;2022-10-16T06:23:42;14.70;99.90
63931;DHT22;50111;48.114;-2.066;2022-10-16T06:26:09;14.70;99.90
63931;DHT22;50111;48.114;-2.066;2022-10-16T06:28:35;14.70;99.90
63931;DHT22;50111;48.114;-2.066;2022-10-16T06:31:01;14.70;99.90
63931;DHT22;50111;48.114;-2.066;2022-10-16T06:33:27;14.70;99.90
63931;DHT22;50111;48.114;-2.066;2022-10-16T06:35:52;14.70;99.90
63931;DHT22;50111;48.114;-2.066;2022-10-16T06:38:18;14.70;99.90
63931;DHT22;50111;48.114;-2.066;2022-10-16T06:40:43;14.70;99.90
63931;DHT22;50111;48.114;-2.066;2022-10-16T06:43:09;14.70;99.90
63931;DHT22;50111;48.114;-2.066;2022-10-16T06:45:34;14.70;99.90
63931;DHT22;50111;48.114;-2.066;2022-10-16T06:48:00;14.70;99.90
63931;DHT22;50111;48.114;-2.066;2022-10-16T06:50:25;14.80;99.90
63931;DHT22;50111;48.114;-2.066;2022-10-16T06:52:51;14.70;99.90
63931;DHT22;50111;48.114;-2.066;2022-10-16T06:55:16;14.70;99.90
63931;DHT22;50111;48.114;-2.066;2022-10-16T06:57:42;14.80;99.90
63931;DHT22;50111;48.114;-2.066;2022-10-16T07:00:08;14.80;99.90
63931;DHT22;50111;48.114;-2.066;2022-10-16T07:02:34;14.80;99.90
63931;DHT22;50111;48.114;-2.066;2022-10-16T07:04:59;14.70;99.90
63931;DHT22;50111;48.114;-2.066;2022-10-16T07:07:25;14.80;99.90
63931;DHT22;50111;48.114;-2.066;2022-10-16T07:09:52;14.80;99.90
63931;DHT22;50111;48.114;-2.066;2022-10-16T07:12:17;14.80;99.90
63931;DHT22;50111;48.114;-2.066;2022-10-16T07:14:43;14.90;99.90
63931;DHT22;50111;48.114;-2.066;2022-10-16T07:17:08;14.90;99.90
63931;DHT22;50111;48.114;-2.066;2022-10-16T07:19:34;14.90;99.90
63931;DHT22;50111;48.114;-2.066;2022-10-16T07:21:59;15.00;99.90
63931;DHT22;50111;48.114;-2.066;2022-10-16T07:24:25;15.00;99.90
63931;DHT22;50111;48.114;-2.066;2022-10-16T07:26:51;15.00;99.90
63931;DHT22;50111;48.114;-2.066;2022-10-16T07:29:18;15.10;99.90
63931;DHT22;50111;48.114;-2.066;2022-10-16T07:31:44;15.00;99.90
63931;DHT22;50111;48.114;-2.066;2022-10-16T07:34:10;15.10;99.90
63931;DHT22;50111;48.114;-2.066;2022-10-16T07:36:36;15.20;99.90
63931;DHT22;50111;48.114;-2.066;2022-10-16T07:39:02;15.20;99.90
63931;DHT22;50111;48.114;-2.066;2022-10-16T07:41:28;15.30;99.90
63931;DHT22;50111;48.114;-2.066;2022-10-16T07:43:54;15.40;99.90
63931;DHT22;50111;48.114;-2.066;2022-10-16T07:46:21;15.50;99.90
63931;DHT22;50111;48.114;-2.066;2022-10-16T07:48:46;15.70;99.90
63931;DHT22;50111;48.114;-2.066;2022-10-16T07:51:13;15.80;99.90
63931;DHT22;50111;48.114;-2.066;2022-10-16T07:53:39;15.90;99.90
63931;DHT22;50111;48.114;-2.066;2022-10-16T07:56:06;15.90;99.90
63931;DHT22;50111;48.114;-2.066;2022-10-16T07:58:32;15.90;99.90
63931;DHT22;50111;48.114;-2.066;2022-10-16T08:00:58;15.90;99.90
63931;DHT22;50111;48.114;-2.066;2022-10-16T08:03:24;15.90;99.90
63931;DHT22;50111;48.114;-2.066;2022-10-16T08:05:51;15.90;99.90
63931;DHT22;50111;48.114;-2.066;2022-10-16T08:08:17;15.90;99.90
63931;DHT22;50111;48.114;-2.066;2022-10-16T08:10:43;15.90;99.90
63931;DHT22;50111;48.114;-2.066;2022-10-16T08:13:08;15.80;99.90
63931;DHT22;50111;48.114;-2.066;2022-10-16T08:15:34;15.80;99.90
63931;DHT22;50111;48.114;-2.066;2022-10-16T08:18:00;15.70;99.90
63931;DHT22;50111;48.114;-2.066;2022-10-16T08:20:27;15.80;99.90
63931;DHT22;50111;48.114;-2.066;2022-10-16T08:22:53;15.90;99.90
63931;DHT22;50111;48.114;-2.066;2022-10-16T08:25:19;15.90;99.90
63931;DHT22;50111;48.114;-2.066;2022-10-16T08:27:45;16.00;99.90
63931;DHT22;50111;48.114;-2.066;2022-10-16T08:30:11;16.00;99.90
63931;DHT22;50111;48.114;-2.066;2022-10-16T08:32:36;16.00;99.90
63931;DHT22;50111;48.114;-2.066;2022-10-16T08:35:02;16.00;99.90
63931;DHT22;50111;48.114;-2.066;2022-10-16T08:37:31;15.90;99.90
63931;DHT22;50111;48.114;-2.066;2022-10-16T08:39:57;16.00;99.90
63931;DHT22;50111;48.114;-2.066;2022-10-16T08:47:20;15.90;99.90
63931;DHT22;50111;48.114;-2.066;2022-10-16T08:50:00;15.80;99.90
63931;DHT22;50111;48.114;-2.066;2022-10-16T08:52:30;15.80;99.90
63931;DHT22;50111;48.114;-2.066;2022-10-16T08:54:57;15.80;99.90
63931;DHT22;50111;48.114;-2.066;2022-10-16T08:57:24;15.80;99.90
63931;DHT22;50111;48.114;-2.066;2022-10-16T08:59:51;15.80;99.90
63931;DHT22;50111;48.114;-2.066;2022-10-16T09:04:59;15.80;99.90
63931;DHT22;50111;48.114;-2.066;2022-10-16T09:07:32;15.90;99.90
63931;DHT22;50111;48.114;-2.066;2022-10-16T09:15:16;15.90;99.90
63931;DHT22;50111;48.114;-2.066;2022-10-16T09:22:43;15.90;99.90
63931;DHT22;50111;48.114;-2.066;2022-10-16T09:25:12;15.90;99.90
63931;DHT22;50111;48.114;-2.066;2022-10-16T09:27:39;15.90;99.90
63931;DHT22;50111;48.114;-2.066;2022-10-16T09:30:15;15.90;99.90
63931;DHT22;50111;48.114;-2.066;2022-10-16T09:32:41;16.00;99.90
63931;DHT22;50111;48.114;-2.066;2022-10-16T09:35:17;16.00;99.90
63931;DHT22;50111;48.114;-2.066;2022-10-16T09:37:44;16.10;99.90
63931;DHT22;50111;48.114;-2.066;2022-10-16T09:40:26;16.20;99.90
63931;DHT22;50111;48.114;-2.066;2022-10-16T09:42:56;16.20;99.90
63931;DHT22;50111;48.114;-2.066;2022-10-16T09:45:23;16.30;99.90
63931;DHT22;50111;48.114;-2.066;2022-10-16T09:47:49;16.30;99.90
63931;DHT22;50111;48.114;-2.066;2022-10-16T09:50:22;16.30;99.90
63931;DHT22;50111;48.114;-2.066;2022-10-16T09:52:49;16.30;99.90
63931;DHT22;50111;48.114;-2.066;2022-10-16T09:55:15;16.40;99.90
63931;DHT22;50111;48.114;-2.066;2022-10-16T09:57:51;16.40;99.90
63931;DHT22;50111;48.114;-2.066;2022-10-16T10:00:17;16.40;99.90
63931;DHT22;50111;48.114;-2.066;2022-10-16T10:02:43;16.50;99.90
63931;DHT22;50111;48.114;-2.066;2022-10-16T10:05:20;16.50;99.90
63931;DHT22;50111;48.114;-2.066;2022-10-16T10:07:52;16.50;99.90
63931;DHT22;50111;48.114;-2.066;2022-10-16T10:10:20;16.50;99.90
63931;DHT22;50111;48.114;-2.066;2022-10-16T10:12:46;16.50;99.90
63931;DHT22;50111;48.114;-2.066;2022-10-16T10:15:11;16.40;99.90
63931;DHT22;50111;48.114;-2.066;2022-10-16T10:17:50;16.40;99.90
63931;DHT22;50111;48.114;-2.066;2022-10-16T10:20:26;16.40;99.90
63931;DHT22;50111;48.114;-2.066;2022-10-16T10:22:52;16.30;99.90
63931;DHT22;50111;48.114;-2.066;2022-10-16T10:25:19;16.30;99.90
63931;DHT22;50111;48.114;-2.066;2022-10-16T10:32:46;16.20;99.90
63931;DHT22;50111;48.114;-2.066;2022-10-16T10:46:18;15.80;99.90
63931;DHT22;50111;48.114;-2.066;2022-10-16T10:51:22;15.70;99.90
63931;DHT22;50111;48.114;-2.066;2022-10-16T10:54:02;15.60;99.90
63931;DHT22;50111;48.114;-2.066;2022-10-16T10:56:44;15.50;99.90
63931;DHT22;50111;48.114;-2.066;2022-10-16T11:01:54;15.40;99.90
63931;DHT22;50111;48.114;-2.066;2022-10-16T11:06:56;15.40;99.90
63931;DHT22;50111;48.114;-2.066;2022-10-16T11:09:27;15.40;99.90
63931;DHT22;50111;48.114;-2.066;2022-10-16T11:11:58;15.30;99.90
63931;DHT22;50111;48.114;-2.066;2022-10-16T11:14:29;15.20;99.90
63931;DHT22;50111;48.114;-2.066;2022-10-16T11:16:58;15.00;99.90
63931;DHT22;50111;48.114;-2.066;2022-10-16T11:22:13;14.90;99.90
63931;DHT22;50111;48.114;-2.066;2022-10-16T11:27:14;14.90;99.90
63931;DHT22;50111;48.114;-2.066;2022-10-16T11:29:44;14.90;99.90
63931;DHT22;50111;48.114;-2.066;2022-10-16T11:32:16;14.90;99.90
63931;DHT22;50111;48.114;-2.066;2022-10-16T11:34:47;15.00;99.90
63931;DHT22;50111;48.114;-2.066;2022-10-16T11:37:23;15.10;99.90
63931;DHT22;50111;48.114;-2.066;2022-10-16T11:39:52;15.10;99.90
63931;DHT22;50111;48.114;-2.066;2022-10-16T11:42:24;15.20;99.90
63931;DHT22;50111;48.114;-2.066;2022-10-16T11:47:26;15.30;99.90
63931;DHT22;50111;48.114;-2.066;2022-10-16T11:49:55;15.40;99.90
63931;DHT22;50111;48.114;-2.066;2022-10-16T11:57:33;15.30;99.90
63931;DHT22;50111;48.114;-2.066;2022-10-16T12:00:10;15.30;99.90
63931;DHT22;50111;48.114;-2.066;2022-10-16T12:05:29;15.30;99.90
63931;DHT22;50111;48.114;-2.066;2022-10-16T12:08:15;15.40;99.90
63931;DHT22;50111;48.114;-2.066;2022-10-16T12:10:42;15.50;99.90
63931;DHT22;50111;48.114;-2.066;2022-10-16T12:18:39;15.70;99.90
63931;DHT22;50111;48.114;-2.066;2022-10-16T12:21:05;15.80;99.90
63931;DHT22;50111;48.114;-2.066;2022-10-16T12:23:54;15.90;99.90
63931;DHT22;50111;48.114;-2.066;2022-10-16T12:26:51;15.90;99.90
63931;DHT22;50111;48.114;-2.066;2022-10-16T12:31:53;15.90;99.90
63931;DHT22;50111;48.114;-2.066;2022-10-16T12:34:23;15.90;99.90
63931;DHT22;50111;48.114;-2.066;2022-10-16T12:36:52;15.80;99.90
63931;DHT22;50111;48.114;-2.066;2022-10-16T12:39:24;15.90;99.90
63931;DHT22;50111;48.114;-2.066;2022-10-16T12:42:03;15.80;99.90
63931;DHT22;50111;48.114;-2.066;2022-10-16T12:44:33;15.80;99.90
63931;DHT22;50111;48.114;-2.066;2022-10-16T12:47:00;15.80;99.90
63931;DHT22;50111;48.114;-2.066;2022-10-16T12:49:35;15.80;99.90
63931;DHT22;50111;48.114;-2.066;2022-10-16T12:52:02;15.90;99.90
63931;DHT22;50111;48.114;-2.066;2022-10-16T12:57:01;16.00;99.90
63931;DHT22;50111;48.114;-2.066;2022-10-16T13:07:22;15.90;99.90
63931;DHT22;50111;48.114;-2.066;2022-10-16T13:10:02;16.00;99.90
63931;DHT22;50111;48.114;-2.066;2022-10-16T13:12:42;16.00;99.90
63931;DHT22;50111;48.114;-2.066;2022-10-16T13:30:19;16.20;99.90
63931;DHT22;50111;48.114;-2.066;2022-10-16T13:32:46;16.20;99.90
63931;DHT22;50111;48.114;-2.066;2022-10-16T13:35:23;16.10;99.90
63931;DHT22;50111;48.114;-2.066;2022-10-16T13:37:49;16.20;99.90
63931;DHT22;50111;48.114;-2.066;2022-10-16T13:40:19;16.10;99.90
63931;DHT22;50111;48.114;-2.066;2022-10-16T13:42:45;16.10;99.90
63931;DHT22;50111;48.114;-2.066;2022-10-16T13:45:18;16.10;99.90
63931;DHT22;50111;48.114;-2.066;2022-10-16T13:47:43;16.10;99.90
63931;DHT22;50111;48.114;-2.066;2022-10-16T13:50:11;16.10;99.90
63931;DHT22;50111;48.114;-2.066;2022-10-16T13:52:37;16.10;99.90
63931;DHT22;50111;48.114;-2.066;2022-10-16T13:55:04;16.10;99.90
63931;DHT22;50111;48.114;-2.066;2022-10-16T13:57:29;16.20;99.90
63931;DHT22;50111;48.114;-2.066;2022-10-16T13:59:55;16.30;99.90
63931;DHT22;50111;48.114;-2.066;2022-10-16T14:04:46;16.50;99.90
63931;DHT22;50111;48.114;-2.066;2022-10-16T14:07:18;16.50;99.90
63931;DHT22;50111;48.114;-2.066;2022-10-16T14:09:47;16.60;99.90
63931;DHT22;50111;48.114;-2.066;2022-10-16T14:12:13;16.60;99.90
63931;DHT22;50111;48.114;-2.066;2022-10-16T14:14:42;16.60;99.90
63931;DHT22;50111;48.114;-2.066;2022-10-16T14:17:15;16.60;99.90
63931;DHT22;50111;48.114;-2.066;2022-10-16T14:19:44;16.60;99.90
63931;DHT22;50111;48.114;-2.066;2022-10-16T14:22:23;16.60;99.90
63931;DHT22;50111;48.114;-2.066;2022-10-16T14:24:49;16.60;99.90
63931;DHT22;50111;48.114;-2.066;2022-10-16T14:27:55;16.60;99.90
63931;DHT22;50111;48.114;-2.066;2022-10-16T14:32:42;16.70;99.90
63931;DHT22;50111;48.114;-2.066;2022-10-16T14:35:27;16.80;99.90
63931;DHT22;50111;48.114;-2.066;2022-10-16T14:37:54;16.80;99.90
63931;DHT22;50111;48.114;-2.066;2022-10-16T14:40:20;16.80;99.90
63931;DHT22;50111;48.114;-2.066;2022-10-16T14:42:48;16.90;99.90
63931;DHT22;50111;48.114;-2.066;2022-10-16T14:45:15;16.90;99.90
63931;DHT22;50111;48.114;-2.066;2022-10-16T14:47:50;17.00;99.90
63931;DHT22;50111;48.114;-2.066;2022-10-16T14:50:16;17.00;99.90
63931;DHT22;50111;48.114;-2.066;2022-10-16T14:52:42;17.00;99.90
63931;DHT22;50111;48.114;-2.066;2022-10-16T14:55:09;17.10;99.90
63931;DHT22;50111;48.114;-2.066;2022-10-16T14:57:35;17.20;99.90
63931;DHT22;50111;48.114;-2.066;2022-10-16T15:00:02;17.20;99.90
63931;DHT22;50111;48.114;-2.066;2022-10-16T15:02:31;17.20;99.90
63931;DHT22;50111;48.114;-2.066;2022-10-16T15:04:57;17.20;99.90
63931;DHT22;50111;48.114;-2.066;2022-10-16T15:07:23;17.20;99.90
63931;DHT22;50111;48.114;-2.066;2022-10-16T15:09:49;17.20;99.90
63931;DHT22;50111;48.114;-2.066;2022-10-16T15:12:15;17.30;99.90
63931;DHT22;50111;48.114;-2.066;2022-10-16T15:14:40;17.30;99.90
63931;DHT22;50111;48.114;-2.066;2022-10-16T15:17:08;17.30;99.90
63931;DHT22;50111;48.114;-2.066;2022-10-16T15:19:33;17.40;99.90
63931;DHT22;50111;48.114;-2.066;2022-10-16T15:21:59;17.40;99.90
63931;DHT22;50111;48.114;-2.066;2022-10-16T15:24:25;17.40;99.90
63931;DHT22;50111;48.114;-2.066;2022-10-16T15:26:50;17.50;99.90
63931;DHT22;50111;48.114;-2.066;2022-10-16T15:29:16;17.70;99.90
63931;DHT22;50111;48.114;-2.066;2022-10-16T15:31:41;17.80;99.90
63931;DHT22;50111;48.114;-2.066;2022-10-16T15:34:12;17.90;99.90
63931;DHT22;50111;48.114;-2.066;2022-10-16T15:36:38;17.90;99.90
63931;DHT22;50111;48.114;-2.066;2022-10-16T15:39:04;18.00;99.90
63931;DHT22;50111;48.114;-2.066;2022-10-16T15:41:30;18.00;99.90
63931;DHT22;50111;48.114;-2.066;2022-10-16T15:43:56;18.10;99.90
63931;DHT22;50111;48.114;-2.066;2022-10-16T15:46:22;18.20;99.90
63931;DHT22;50111;48.114;-2.066;2022-10-16T15:48:48;18.10;99.90
63931;DHT22;50111;48.114;-2.066;2022-10-16T15:51:14;18.00;99.90
63931;DHT22;50111;48.114;-2.066;2022-10-16T15:53:40;18.00;99.90
63931;DHT22;50111;48.114;-2.066;2022-10-16T15:56:06;18.00;99.90
63931;DHT22;50111;48.114;-2.066;2022-10-16T15:58:32;17.90;99.90
63931;DHT22;50111;48.114;-2.066;2022-10-16T16:00:57;17.90;99.90
63931;DHT22;50111;48.114;-2.066;2022-10-16T16:03:25;17.80;99.90
63931;DHT22;50111;48.114;-2.066;2022-10-16T16:05:51;17.80;99.90
63931;DHT22;50111;48.114;-2.066;2022-10-16T16:08:17;17.80;99.90
63931;DHT22;50111;48.114;-2.066;2022-10-16T16:10:42;17.80;99.90
63931;DHT22;50111;48.114;-2.066;2022-10-16T16:13:08;17.80;99.90
63931;DHT22;50111;48.114;-2.066;2022-10-16T16:15:33;17.80;99.90
63931;DHT22;50111;48.114;-2.066;2022-10-16T16:17:59;17.80;99.90
63931;DHT22;50111;48.114;-2.066;2022-10-16T16:20:27;17.70;99.90
63931;DHT22;50111;48.114;-2.066;2022-10-16T16:22:52;17.70;99.90
63931;DHT22;50111;48.114;-2.066;2022-10-16T16:25:18;17.70;99.90
63931;DHT22;50111;48.114;-2.066;2022-10-16T16:27:44;17.70;99.90
63931;DHT22;50111;48.114;-2.066;2022-10-16T16:30:10;17.70;99.90
63931;DHT22;50111;48.114;-2.066;2022-10-16T16:32:36;17.60;99.90
63931;DHT22;50111;48.114;-2.066;2022-10-16T16:35:02;17.60;99.90
63931;DHT22;50111;48.114;-2.066;2022-10-16T16:37:28;17.60;99.90
63931;DHT22;50111;48.114;-2.066;2022-10-16T16:39:53;17.60;99.90
63931;DHT22;50111;48.114;-2.066;2022-10-16T16:42:20;17.60;99.90
63931;DHT22;50111;48.114;-2.066;2022-10-16T16:44:47;17.60;99.90
63931;DHT22;50111;48.114;-2.066;2022-10-16T16:47:13;17.60;99.90
63931;DHT22;50111;48.114;-2.066;2022-10-16T16:49:38;17.50;99.90
63931;DHT22;50111;48.114;-2.066;2022-10-16T16:52:05;17.50;99.90
63931;DHT22;50111;48.114;-2.066;2022-10-16T16:54:31;17.40;99.90
63931;DHT22;50111;48.114;-2.066;2022-10-16T16:56:56;17.40;99.90
63931;DHT22;50111;48.114;-2.066;2022-10-16T16:59:22;17.40;99.90
63931;DHT22;50111;48.114;-2.066;2022-10-16T17:01:48;17.30;99.90
63931;DHT22;50111;48.114;-2.066;2022-10-16T17:04:14;17.30;99.90
63931;DHT22;50111;48.114;-2.066;2022-10-16T17:06:40;17.30;99.90
63931;DHT22;50111;48.114;-2.066;2022-10-16T17:09:06;17.30;99.90
63931;DHT22;50111;48.114;-2.066;2022-10-16T17:11:32;17.30;99.90